sensor_id;sensor_type;location;lat;lon;timestamp;temperature;humidity
42617;DHT22;28250;52.320;0.360;2023-08-12T00:00:00;17.40;99.90
42617;DHT22;28250;52.320;0.360;2023-08-12T00:02:33;17.30;99.90
42617;DHT22;28250;52.320;0.360;2023-08-12T00:05:00;17.30;99.90
42617;DHT22;28250;52.320;0.360;2023-08-12T00:07:25;17.20;99.90
42617;DHT22;28250;52.320;0.360;2023-08-12T00:09:51;17.20;99.90
42617;DHT22;28250;52.320;0.360;2023-08-12T00:12:17;17.20;99.90
42617;DHT22;28250;52.320;0.360;2023-08-12T00:14:43;17.10;99.90
42617;DHT22;28250;52.320;0.360;2023-08-12T00:17:09;17.00;99.90
42617;DHT22;28250;52.320;0.360;2023-08-12T00:19:35;16.90;99.90
42617;DHT22;28250;52.320;0.360;2023-08-12T00:22:01;16.90;99.90
42617;DHT22;28250;52.320;0.360;2023-08-12T00:24:27;16.90;99.90
42617;DHT22;28250;52.320;0.360;2023-08-12T00:26:53;16.80;99.90
42617;DHT22;28250;52.320;0.360;2023-08-12T00:29:19;16.80;99.90
42617;DHT22;28250;52.320;0.360;2023-08-12T00:31:45;16.70;99.90
42617;DHT22;28250;52.320;0.360;2023-08-12T00:34:11;16.60;99.90
42617;DHT22;28250;52.320;0.360;2023-08-12T00:36:37;16.50;99.90
42617;DHT22;28250;52.320;0.360;2023-08-12T00:39:03;16.40;99.90
42617;DHT22;28250;52.320;0.360;2023-08-12T00:41:29;16.30;99.90
42617;DHT22;28250;52.320;0.360;2023-08-12T00:43:56;16.10;99.90
42617;DHT22;28250;52.320;0.360;2023-08-12T00:46:22;16.10;99.90
42617;DHT22;28250;52.320;0.360;2023-08-12T00:48:49;16.00;99.90
42617;DHT22;28250;52.320;0.360;2023-08-12T00:51:16;16.00;99.90
42617;DHT22;28250;52.320;0.360;2023-08-12T00:53:43;16.00;99.90
42617;DHT22;28250;52.320;0.360;2023-08-12T00:56:09;15.90;99.90
42617;DHT22;28250;52.320;0.360;2023-08-12T00:58:35;15.90;99.90
42617;DHT22;28250;52.320;0.360;2023-08-12T01:01:01;15.90;99.90
42617;DHT22;28250;52.320;0.360;2023-08-12T01:03:27;15.80;99.90
42617;DHT22;28250;52.320;0.360;2023-08-12T01:05:55;15.80;99.90
42617;DHT22;28250;52.320;0.360;2023-08-12T01:08:21;15.80;99.90
42617;DHT22;28250;52.320;0.360;2023-08-12T01:11:10;15.80;99.90
42617;DHT22;28250;52.320;0.360;2023-08-12T01:13:49;15.70;99.90
42617;DHT22;28250;52.320;0.360;2023-08-12T01:16:21;15.60;99.90
42617;DHT22;28250;52.320;0.360;2023-08-12T01:18:49;15.60;99.90
42617;DHT22;28250;52.320;0.360;2023-08-12T01:21:16;15.60;99.90
42617;DHT22;28250;52.320;0.360;2023-08-12T01:23:46;15.60;99.90
42617;DHT22;28250;52.320;0.360;2023-08-12T01:26:12;15.60;99.90
42617;DHT22;28250;52.320;0.360;2023-08-12T01:28:38;15.50;99.90
42617;DHT22;28250;52.320;0.360;2023-08-12T01:31:20;15.50;99.90
42617;DHT22;28250;52.320;0.360;2023-08-12T01:33:55;15.30;99.90
42617;DHT22;28250;52.320;0.360;2023-08-12T01:36:25;15.30;99.90
42617;DHT22;28250;52.320;0.360;2023-08-12T01:38:55;15.30;99.90
42617;DHT22;28250;52.320;0.360;2023-08-12T01:41:23;15.20;99.90
42617;DHT22;28250;52.320;0.360;2023-08-12T01:43:50;15.10;99.90
42617;DHT22;28250;52.320;0.360;2023-08-12T01:46:16;15.20;99.90
42617;DHT22;28250;52.320;0.360;2023-08-12T01:48:42;15.10;99.90
42617;DHT22;28250;52.320;0.360;2023-08-12T01:51:08;15.00;99.90
42617;DHT22;28250;52.320;0.360;2023-08-12T01:53:34;15.00;99.90
42617;DHT22;28250;52.320;0.360;2023-08-12T01:56:09;15.00;99.90
42617;DHT22;28250;52.320;0.360;2023-08-12T01:58:35;14.90;99.90
42617;DHT22;28250;52.320;0.360;2023-08-12T02:01:01;14.90;99.90
42617;DHT22;28250;52.320;0.360;2023-08-12T02:03:28;14.90;99.90
42617;DHT22;28250;52.320;0.360;2023-08-12T02:05:54;14.80;99.90
42617;DHT22;28250;52.320;0.360;2023-08-12T02:08:21;14.80;99.90
42617;DHT22;28250;52.320;0.360;2023-08-12T02:10:47;14.80;99.90
42617;DHT22;28250;52.320;0.360;2023-08-12T02:13:14;14.80;99.90
42617;DHT22;28250;52.320;0.360;2023-08-12T02:15:40;14.90;99.90
42617;DHT22;28250;52.320;0.360;2023-08-12T02:18:10;14.90;99.90
42617;DHT22;28250;52.320;0.360;2023-08-12T02:20:36;14.80;99.90
42617;DHT22;28250;52.320;0.360;2023-08-12T02:23:04;14.70;99.90
42617;DHT22;28250;52.320;0.360;2023-08-12T02:25:37;14.60;99.90
42617;DHT22;28250;52.320;0.360;2023-08-12T02:28:03;14.70;99.90
42617;DHT22;28250;52.320;0.360;2023-08-12T02:30:29;14.70;99.90
42617;DHT22;28250;52.320;0.360;2023-08-12T02:32:57;14.70;99.90
42617;DHT22;28250;52.320;0.360;2023-08-12T02:35:23;14.70;99.90
42617;DHT22;28250;52.320;0.360;2023-08-12T02:37:49;14.70;99.90
42617;DHT22;28250;52.320;0.360;2023-08-12T02:40:16;14.80;99.90
42617;DHT22;28250;52.320;0.360;2023-08-12T02:42:42;14.70;99.90
42617;DHT22;28250;52.320;0.360;2023-08-12T02:45:08;14.70;99.90
42617;DHT22;28250;52.320;0.360;2023-08-12T02:47:34;14.60;99.90
42617;DHT22;28250;52.320;0.360;2023-08-12T02:50:00;14.50;99.90
42617;DHT22;28250;52.320;0.360;2023-08-12T02:52:27;14.50;99.90
42617;DHT22;28250;52.320;0.360;2023-08-12T02:54:53;14.40;99.90
42617;DHT22;28250;52.320;0.360;2023-08-12T02:57:20;14.40;99.90
42617;DHT22;28250;52.320;0.360;2023-08-12T02:59:46;14.30;99.90
42617;DHT22;28250;52.320;0.360;2023-08-12T03:02:12;14.30;99.90
42617;DHT22;28250;52.320;0.360;2023-08-12T03:04:38;14.30;99.90
42617;DHT22;28250;52.320;0.360;2023-08-12T03:07:05;14.20;99.90
42617;DHT22;28250;52.320;0.360;2023-08-12T03:09:31;14.20;99.90
42617;DHT22;28250;52.320;0.360;2023-08-12T03:11:57;14.20;99.90
42617;DHT22;28250;52.320;0.360;2023-08-12T03:14:28;14.20;99.90
42617;DHT22;28250;52.320;0.360;2023-08-12T03:16:57;14.10;99.90
42617;DHT22;28250;52.320;0.360;2023-08-12T03:19:23;14.10;99.90
42617;DHT22;28250;52.320;0.360;2023-08-12T03:21:49;14.10;99.90
42617;DHT22;28250;52.320;0.360;2023-08-12T03:24:16;14.10;99.90
42617;DHT22;28250;52.320;0.360;2023-08-12T03:26:42;14.10;99.90
42617;DHT22;28250;52.320;0.360;2023-08-12T03:29:08;14.10;99.90
42617;DHT22;28250;52.320;0.360;2023-08-12T03:31:37;14.10;99.90
42617;DHT22;28250;52.320;0.360;2023-08-12T03:34:04;14.10;99.90
42617;DHT22;28250;52.320;0.360;2023-08-12T03:36:31;14.10;99.90
42617;DHT22;28250;52.320;0.360;2023-08-12T03:38:58;14.10;99.90
42617;DHT22;28250;52.320;0.360;2023-08-12T03:41:26;14.00;99.90
42617;DHT22;28250;52.320;0.360;2023-08-12T03:43:54;13.90;99.90
42617;DHT22;28250;52.320;0.360;2023-08-12T03:46:21;13.90;99.90
42617;DHT22;28250;52.320;0.360;2023-08-12T03:48:47;13.80;99.90
42617;DHT22;28250;52.320;0.360;2023-08-12T03:51:13;13.80;99.90
42617;DHT22;28250;52.320;0.360;2023-08-12T03:53:39;13.90;99.90
42617;DHT22;28250;52.320;0.360;2023-08-12T03:56:05;13.90;99.90
42617;DHT22;28250;52.320;0.360;2023-08-12T03:58:32;14.00;99.90
42617;DHT22;28250;52.320;0.360;2023-08-12T04:00:58;14.00;99.90
42617;DHT22;28250;52.320;0.360;2023-08-12T04:03:24;14.00;99.90
42617;DHT22;28250;52.320;0.360;2023-08-12T04:05:51;13.90;99.90
42617;DHT22;28250;52.320;0.360;2023-08-12T04:08:20;13.90;99.90
42617;DHT22;28250;52.320;0.360;2023-08-12T04:10:47;13.80;99.90
42617;DHT22;28250;52.320;0.360;2023-08-12T04:13:14;13.80;99.90
42617;DHT22;28250;52.320;0.360;2023-08-12T04:15:41;13.70;99.90
42617;DHT22;28250;52.320;0.360;2023-08-12T04:18:07;13.70;99.90
42617;DHT22;28250;52.320;0.360;2023-08-12T04:20:34;13.70;99.90
42617;DHT22;28250;52.320;0.360;2023-08-12T04:23:00;13.70;99.90
42617;DHT22;28250;52.320;0.360;2023-08-12T04:25:26;13.70;99.90
42617;DHT22;28250;52.320;0.360;2023-08-12T04:27:52;13.70;99.90
42617;DHT22;28250;52.320;0.360;2023-08-12T04:30:18;13.70;99.90
42617;DHT22;28250;52.320;0.360;2023-08-12T04:32:45;13.60;99.90
42617;DHT22;28250;52.320;0.360;2023-08-12T04:35:11;13.60;99.90
42617;DHT22;28250;52.320;0.360;2023-08-12T04:37:38;13.60;99.90
42617;DHT22;28250;52.320;0.360;2023-08-12T04:40:06;13.60;99.90
42617;DHT22;28250;52.320;0.360;2023-08-12T04:42:33;13.50;99.90
42617;DHT22;28250;52.320;0.360;2023-08-12T04:44:59;13.50;99.90
42617;DHT22;28250;52.320;0.360;2023-08-12T04:47:28;13.50;99.90
42617;DHT22;28250;52.320;0.360;2023-08-12T04:49:55;13.60;99.90
42617;DHT22;28250;52.320;0.360;2023-08-12T04:52:21;13.60;99.90
42617;DHT22;28250;52.320;0.360;2023-08-12T04:54:48;13.70;99.90
42617;DHT22;28250;52.320;0.360;2023-08-12T04:57:18;13.70;99.90
42617;DHT22;28250;52.320;0.360;2023-08-12T04:59:44;13.80;99.90
42617;DHT22;28250;52.320;0.360;2023-08-12T05:02:10;13.70;99.90
42617;DHT22;28250;52.320;0.360;2023-08-12T05:04:36;13.70;99.90
42617;DHT22;28250;52.320;0.360;2023-08-12T05:07:02;13.70;99.90
42617;DHT22;28250;52.320;0.360;2023-08-12T05:09:28;13.80;99.90
42617;DHT22;28250;52.320;0.360;2023-08-12T05:11:54;13.80;99.90
42617;DHT22;28250;52.320;0.360;2023-08-12T05:14:20;13.90;99.90
42617;DHT22;28250;52.320;0.360;2023-08-12T05:16:46;13.90;99.90
42617;DHT22;28250;52.320;0.360;2023-08-12T05:19:12;13.80;99.90
42617;DHT22;28250;52.320;0.360;2023-08-12T05:21:38;13.80;99.90
42617;DHT22;28250;52.320;0.360;2023-08-12T05:24:05;13.90;99.90
42617;DHT22;28250;52.320;0.360;2023-08-12T05:26:33;13.90;99.90
42617;DHT22;28250;52.320;0.360;2023-08-12T05:28:59;14.00;99.90
42617;DHT22;28250;52.320;0.360;2023-08-12T05:31:25;14.00;99.90
42617;DHT22;28250;52.320;0.360;2023-08-12T05:33:51;14.00;99.90
42617;DHT22;28250;52.320;0.360;2023-08-12T05:36:17;14.00;99.90
42617;DHT22;28250;52.320;0.360;2023-08-12T05:38:43;14.10;99.90
42617;DHT22;28250;52.320;0.360;2023-08-12T05:41:09;14.00;99.90
42617;DHT22;28250;52.320;0.360;2023-08-12T05:43:35;14.10;99.90
42617;DHT22;28250;52.320;0.360;2023-08-12T05:46:01;14.10;99.90
42617;DHT22;28250;52.320;0.360;2023-08-12T05:48:28;14.20;99.90
42617;DHT22;28250;52.320;0.360;2023-08-12T05:50:54;14.20;99.90
42617;DHT22;28250;52.320;0.360;2023-08-12T05:53:21;14.30;99.90
42617;DHT22;28250;52.320;0.360;2023-08-12T05:55:47;14.40;99.90
42617;DHT22;28250;52.320;0.360;2023-08-12T05:58:13;14.50;99.90
42617;DHT22;28250;52.320;0.360;2023-08-12T06:00:39;14.50;99.90
42617;DHT22;28250;52.320;0.360;2023-08-12T06:03:05;14.50;99.90
42617;DHT22;28250;52.320;0.360;2023-08-12T06:05:31;14.60;99.90
42617;DHT22;28250;52.320;0.360;2023-08-12T06:07:57;14.70;99.90
42617;DHT22;28250;52.320;0.360;2023-08-12T06:10:24;14.80;99.90
42617;DHT22;28250;52.320;0.360;2023-08-12T06:12:50;14.90;99.90
42617;DHT22;28250;52.320;0.360;2023-08-12T06:15:16;14.90;99.90
42617;DHT22;28250;52.320;0.360;2023-08-12T06:17:42;15.00;99.90
42617;DHT22;28250;52.320;0.360;2023-08-12T06:20:09;15.00;99.90
42617;DHT22;28250;52.320;0.360;2023-08-12T06:22:35;15.10;99.90
42617;DHT22;28250;52.320;0.360;2023-08-12T06:25:01;15.30;99.90
42617;DHT22;28250;52.320;0.360;2023-08-12T06:27:27;16.00;99.90
42617;DHT22;28250;52.320;0.360;2023-08-12T06:29:53;16.90;99.90
42617;DHT22;28250;52.320;0.360;2023-08-12T06:32:19;17.20;99.90
42617;DHT22;28250;52.320;0.360;2023-08-12T06:34:45;18.20;99.90
42617;DHT22;28250;52.320;0.360;2023-08-12T06:37:11;19.00;99.90
42617;DHT22;28250;52.320;0.360;2023-08-12T06:39:37;19.20;99.90
42617;DHT22;28250;52.320;0.360;2023-08-12T06:42:03;19.80;99.90
42617;DHT22;28250;52.320;0.360;2023-08-12T06:44:30;20.40;99.90
42617;DHT22;28250;52.320;0.360;2023-08-12T06:46:56;20.70;99.90
42617;DHT22;28250;52.320;0.360;2023-08-12T06:49:22;20.40;99.90
42617;DHT22;28250;52.320;0.360;2023-08-12T06:51:48;20.60;99.90
42617;DHT22;28250;52.320;0.360;2023-08-12T06:54:14;20.70;99.90
42617;DHT22;28250;52.320;0.360;2023-08-12T06:56:40;20.90;99.90
42617;DHT22;28250;52.320;0.360;2023-08-12T06:59:06;21.00;99.90
42617;DHT22;28250;52.320;0.360;2023-08-12T07:01:32;21.20;99.90
42617;DHT22;28250;52.320;0.360;2023-08-12T07:03:58;20.80;99.90
42617;DHT22;28250;52.320;0.360;2023-08-12T07:06:24;20.70;99.90
42617;DHT22;28250;52.320;0.360;2023-08-12T07:08:50;20.60;99.90
42617;DHT22;28250;52.320;0.360;2023-08-12T07:11:16;20.40;99.90
42617;DHT22;28250;52.320;0.360;2023-08-12T07:13:42;20.70;99.90
42617;DHT22;28250;52.320;0.360;2023-08-12T07:16:12;20.50;99.90
42617;DHT22;28250;52.320;0.360;2023-08-12T07:18:38;20.50;99.90
42617;DHT22;28250;52.320;0.360;2023-08-12T07:21:04;20.40;99.90
42617;DHT22;28250;52.320;0.360;2023-08-12T07:23:30;20.00;99.90
42617;DHT22;28250;52.320;0.360;2023-08-12T07:25:56;19.70;99.90
42617;DHT22;28250;52.320;0.360;2023-08-12T07:28:22;20.00;99.90
42617;DHT22;28250;52.320;0.360;2023-08-12T07:30:48;20.60;99.90
42617;DHT22;28250;52.320;0.360;2023-08-12T07:33:15;20.10;99.90
42617;DHT22;28250;52.320;0.360;2023-08-12T07:35:41;19.50;99.90
42617;DHT22;28250;52.320;0.360;2023-08-12T07:38:07;19.30;99.90
42617;DHT22;28250;52.320;0.360;2023-08-12T07:40:33;19.20;99.90
42617;DHT22;28250;52.320;0.360;2023-08-12T07:42:59;19.10;99.90
42617;DHT22;28250;52.320;0.360;2023-08-12T07:45:25;19.10;99.90
42617;DHT22;28250;52.320;0.360;2023-08-12T07:47:51;19.30;99.90
42617;DHT22;28250;52.320;0.360;2023-08-12T07:50:18;19.30;99.90
42617;DHT22;28250;52.320;0.360;2023-08-12T07:52:44;19.40;99.90
42617;DHT22;28250;52.320;0.360;2023-08-12T07:55:10;19.50;99.90
42617;DHT22;28250;52.320;0.360;2023-08-12T07:57:36;19.50;99.90
42617;DHT22;28250;52.320;0.360;2023-08-12T08:00:02;19.60;99.90
42617;DHT22;28250;52.320;0.360;2023-08-12T08:02:30;19.50;99.90
42617;DHT22;28250;52.320;0.360;2023-08-12T08:04:56;19.30;99.90
42617;DHT22;28250;52.320;0.360;2023-08-12T08:07:23;19.40;99.90
42617;DHT22;28250;52.320;0.360;2023-08-12T08:09:51;19.50;99.90
42617;DHT22;28250;52.320;0.360;2023-08-12T08:12:17;19.40;99.90
42617;DHT22;28250;52.320;0.360;2023-08-12T08:14:43;19.30;99.90
42617;DHT22;28250;52.320;0.360;2023-08-12T08:17:09;19.30;99.90
42617;DHT22;28250;52.320;0.360;2023-08-12T08:19:35;19.40;99.90
42617;DHT22;28250;52.320;0.360;2023-08-12T08:22:01;19.50;99.90
42617;DHT22;28250;52.320;0.360;2023-08-12T08:24:27;19.70;99.90
42617;DHT22;28250;52.320;0.360;2023-08-12T08:26:53;19.70;99.90
42617;DHT22;28250;52.320;0.360;2023-08-12T08:29:19;19.60;99.90
42617;DHT22;28250;52.320;0.360;2023-08-12T08:31:45;19.60;99.90
42617;DHT22;28250;52.320;0.360;2023-08-12T08:34:11;19.40;99.90
42617;DHT22;28250;52.320;0.360;2023-08-12T08:36:37;19.20;99.90
42617;DHT22;28250;52.320;0.360;2023-08-12T08:39:03;19.30;99.90
42617;DHT22;28250;52.320;0.360;2023-08-12T08:41:31;19.40;99.90
42617;DHT22;28250;52.320;0.360;2023-08-12T08:44:02;19.40;99.90
42617;DHT22;28250;52.320;0.360;2023-08-12T08:46:29;19.30;99.90
42617;DHT22;28250;52.320;0.360;2023-08-12T08:48:58;19.40;99.90
42617;DHT22;28250;52.320;0.360;2023-08-12T08:51:25;19.20;99.90
42617;DHT22;28250;52.320;0.360;2023-08-12T08:53:53;19.30;99.90
42617;DHT22;28250;52.320;0.360;2023-08-12T08:56:20;19.40;99.90
42617;DHT22;28250;52.320;0.360;2023-08-12T08:58:47;19.50;99.90
42617;DHT22;28250;52.320;0.360;2023-08-12T09:01:14;19.60;99.90
42617;DHT22;28250;52.320;0.360;2023-08-12T09:03:42;19.80;99.90
42617;DHT22;28250;52.320;0.360;2023-08-12T09:06:09;19.90;99.90
42617;DHT22;28250;52.320;0.360;2023-08-12T09:08:37;20.20;99.90
42617;DHT22;28250;52.320;0.360;2023-08-12T09:11:07;20.60;99.90
42617;DHT22;28250;52.320;0.360;2023-08-12T09:13:33;20.70;99.90
42617;DHT22;28250;52.320;0.360;2023-08-12T09:15:59;20.70;99.90
42617;DHT22;28250;52.320;0.360;2023-08-12T09:18:26;20.70;99.90
42617;DHT22;28250;52.320;0.360;2023-08-12T09:20:52;20.70;99.90
42617;DHT22;28250;52.320;0.360;2023-08-12T09:23:19;20.70;99.90
42617;DHT22;28250;52.320;0.360;2023-08-12T09:25:45;20.70;99.90
42617;DHT22;28250;52.320;0.360;2023-08-12T09:28:12;20.70;99.90
42617;DHT22;28250;52.320;0.360;2023-08-12T09:30:39;20.90;99.90
42617;DHT22;28250;52.320;0.360;2023-08-12T09:33:07;20.90;99.90
42617;DHT22;28250;52.320;0.360;2023-08-12T09:35:40;20.90;99.90
42617;DHT22;28250;52.320;0.360;2023-08-12T09:38:10;21.00;99.90
42617;DHT22;28250;52.320;0.360;2023-08-12T09:40:37;21.10;99.90
42617;DHT22;28250;52.320;0.360;2023-08-12T09:43:04;21.30;99.90
42617;DHT22;28250;52.320;0.360;2023-08-12T09:45:32;21.50;99.90
42617;DHT22;28250;52.320;0.360;2023-08-12T09:47:59;21.60;99.90
42617;DHT22;28250;52.320;0.360;2023-08-12T09:50:26;22.20;99.90
42617;DHT22;28250;52.320;0.360;2023-08-12T09:52:54;22.40;99.90
42617;DHT22;28250;52.320;0.360;2023-08-12T09:55:23;22.10;99.90
42617;DHT22;28250;52.320;0.360;2023-08-12T09:57:54;22.00;99.90
42617;DHT22;28250;52.320;0.360;2023-08-12T10:00:22;22.10;99.90
42617;DHT22;28250;52.320;0.360;2023-08-12T10:02:50;22.00;99.90
42617;DHT22;28250;52.320;0.360;2023-08-12T10:05:37;22.00;99.90
42617;DHT22;28250;52.320;0.360;2023-08-12T10:08:04;22.20;99.90
42617;DHT22;28250;52.320;0.360;2023-08-12T10:10:34;22.30;99.90
42617;DHT22;28250;52.320;0.360;2023-08-12T10:13:01;22.20;99.90
42617;DHT22;28250;52.320;0.360;2023-08-12T10:15:28;22.10;99.90
42617;DHT22;28250;52.320;0.360;2023-08-12T10:17:56;22.10;99.90
42617;DHT22;28250;52.320;0.360;2023-08-12T10:20:23;22.00;99.90
42617;DHT22;28250;52.320;0.360;2023-08-12T10:22:51;22.20;99.90
42617;DHT22;28250;52.320;0.360;2023-08-12T10:25:20;22.40;99.90
42617;DHT22;28250;52.320;0.360;2023-08-12T10:27:50;22.30;99.90
42617;DHT22;28250;52.320;0.360;2023-08-12T10:30:16;22.20;99.90
42617;DHT22;28250;52.320;0.360;2023-08-12T10:32:42;22.10;99.90
42617;DHT22;28250;52.320;0.360;2023-08-12T10:35:09;22.40;99.90
42617;DHT22;28250;52.320;0.360;2023-08-12T10:37:35;22.60;99.90
42617;DHT22;28250;52.320;0.360;2023-08-12T10:40:05;22.90;99.90
42617;DHT22;28250;52.320;0.360;2023-08-12T10:42:44;23.40;99.90
42617;DHT22;28250;52.320;0.360;2023-08-12T10:45:12;23.20;99.90
42617;DHT22;28250;52.320;0.360;2023-08-12T10:50:44;22.60;99.90
42617;DHT22;28250;52.320;0.360;2023-08-12T10:53:29;22.60;99.90
42617;DHT22;28250;52.320;0.360;2023-08-12T10:56:02;22.30;99.90
42617;DHT22;28250;52.320;0.360;2023-08-12T10:58:34;22.00;99.90
42617;DHT22;28250;52.320;0.360;2023-08-12T11:01:01;22.10;99.90
42617;DHT22;28250;52.320;0.360;2023-08-12T11:03:32;22.20;99.90
42617;DHT22;28250;52.320;0.360;2023-08-12T11:06:02;22.20;99.90
42617;DHT22;28250;52.320;0.360;2023-08-12T11:08:28;22.40;99.90
42617;DHT22;28250;52.320;0.360;2023-08-12T11:10:55;22.60;99.90
42617;DHT22;28250;52.320;0.360;2023-08-12T11:13:22;22.90;99.90
42617;DHT22;28250;52.320;0.360;2023-08-12T11:15:48;22.90;99.90
42617;DHT22;28250;52.320;0.360;2023-08-12T11:18:17;22.80;99.90
42617;DHT22;28250;52.320;0.360;2023-08-12T11:20:46;22.60;99.90
42617;DHT22;28250;52.320;0.360;2023-08-12T11:23:14;22.40;99.90
42617;DHT22;28250;52.320;0.360;2023-08-12T11:25:43;22.60;99.90
42617;DHT22;28250;52.320;0.360;2023-08-12T11:28:10;23.10;99.90
42617;DHT22;28250;52.320;0.360;2023-08-12T11:30:36;23.20;99.90
42617;DHT22;28250;52.320;0.360;2023-08-12T11:33:03;23.20;99.90
42617;DHT22;28250;52.320;0.360;2023-08-12T11:35:29;23.20;99.90
42617;DHT22;28250;52.320;0.360;2023-08-12T11:37:57;23.00;99.90
42617;DHT22;28250;52.320;0.360;2023-08-12T11:40:25;23.00;99.90
42617;DHT22;28250;52.320;0.360;2023-08-12T11:42:53;23.20;99.90
42617;DHT22;28250;52.320;0.360;2023-08-12T11:45:21;23.30;99.90
42617;DHT22;28250;52.320;0.360;2023-08-12T11:47:48;23.60;99.90
42617;DHT22;28250;52.320;0.360;2023-08-12T11:50:19;23.40;99.90
42617;DHT22;28250;52.320;0.360;2023-08-12T11:52:47;23.30;99.90
42617;DHT22;28250;52.320;0.360;2023-08-12T11:55:13;23.60;99.90
42617;DHT22;28250;52.320;0.360;2023-08-12T11:57:40;24.10;99.90
42617;DHT22;28250;52.320;0.360;2023-08-12T12:00:08;24.60;99.90
42617;DHT22;28250;52.320;0.360;2023-08-12T12:02:55;25.30;99.90
42617;DHT22;28250;52.320;0.360;2023-08-12T12:05:28;24.90;99.90
42617;DHT22;28250;52.320;0.360;2023-08-12T12:07:59;24.60;99.90
42617;DHT22;28250;52.320;0.360;2023-08-12T12:10:30;24.80;99.90
42617;DHT22;28250;52.320;0.360;2023-08-12T12:12:58;24.90;99.90
42617;DHT22;28250;52.320;0.360;2023-08-12T12:15:24;25.70;99.90
42617;DHT22;28250;52.320;0.360;2023-08-12T12:17:51;25.40;99.90
42617;DHT22;28250;52.320;0.360;2023-08-12T12:20:17;25.60;99.90
42617;DHT22;28250;52.320;0.360;2023-08-12T12:22:45;25.30;99.90
42617;DHT22;28250;52.320;0.360;2023-08-12T12:25:13;25.70;99.90
42617;DHT22;28250;52.320;0.360;2023-08-12T12:27:44;25.90;99.90
42617;DHT22;28250;52.320;0.360;2023-08-12T12:30:12;26.10;99.90
42617;DHT22;28250;52.320;0.360;2023-08-12T12:32:39;26.10;99.90
42617;DHT22;28250;52.320;0.360;2023-08-12T12:35:06;26.40;99.90
42617;DHT22;28250;52.320;0.360;2023-08-12T12:37:35;26.10;99.90
42617;DHT22;28250;52.320;0.360;2023-08-12T12:40:02;25.70;99.90
42617;DHT22;28250;52.320;0.360;2023-08-12T12:42:30;25.20;99.90
42617;DHT22;28250;52.320;0.360;2023-08-12T12:44:56;25.20;99.90
42617;DHT22;28250;52.320;0.360;2023-08-12T12:47:22;25.50;99.90
42617;DHT22;28250;52.320;0.360;2023-08-12T12:49:48;25.20;99.90
42617;DHT22;28250;52.320;0.360;2023-08-12T12:52:14;24.60;99.90
42617;DHT22;28250;52.320;0.360;2023-08-12T12:54:40;24.20;99.90
42617;DHT22;28250;52.320;0.360;2023-08-12T12:57:06;23.90;99.90
42617;DHT22;28250;52.320;0.360;2023-08-12T12:59:32;23.90;99.90
42617;DHT22;28250;52.320;0.360;2023-08-12T13:01:58;23.80;99.90
42617;DHT22;28250;52.320;0.360;2023-08-12T13:04:24;23.50;99.90
42617;DHT22;28250;52.320;0.360;2023-08-12T13:06:50;23.00;99.90
42617;DHT22;28250;52.320;0.360;2023-08-12T13:09:16;23.00;99.90
42617;DHT22;28250;52.320;0.360;2023-08-12T13:11:42;23.30;99.90
42617;DHT22;28250;52.320;0.360;2023-08-12T13:14:08;24.00;99.90
42617;DHT22;28250;52.320;0.360;2023-08-12T13:16:34;24.30;99.90
42617;DHT22;28250;52.320;0.360;2023-08-12T13:19:00;24.90;99.90
42617;DHT22;28250;52.320;0.360;2023-08-12T13:21:27;25.10;99.90
42617;DHT22;28250;52.320;0.360;2023-08-12T13:23:53;25.50;99.90
42617;DHT22;28250;52.320;0.360;2023-08-12T13:26:21;25.40;99.90
42617;DHT22;28250;52.320;0.360;2023-08-12T13:28:47;24.90;99.90
42617;DHT22;28250;52.320;0.360;2023-08-12T13:31:13;24.50;99.90
42617;DHT22;28250;52.320;0.360;2023-08-12T13:33:40;24.00;99.90
42617;DHT22;28250;52.320;0.360;2023-08-12T13:36:06;24.00;99.90
42617;DHT22;28250;52.320;0.360;2023-08-12T13:38:32;25.00;99.90
42617;DHT22;28250;52.320;0.360;2023-08-12T13:40:58;25.30;99.90
42617;DHT22;28250;52.320;0.360;2023-08-12T13:43:24;25.20;99.90
42617;DHT22;28250;52.320;0.360;2023-08-12T13:45:50;24.90;99.90
42617;DHT22;28250;52.320;0.360;2023-08-12T13:48:16;24.60;99.90
42617;DHT22;28250;52.320;0.360;2023-08-12T13:50:42;24.40;99.90
42617;DHT22;28250;52.320;0.360;2023-08-12T13:53:08;24.10;99.90
42617;DHT22;28250;52.320;0.360;2023-08-12T13:55:34;23.80;99.90
42617;DHT22;28250;52.320;0.360;2023-08-12T13:58:00;24.20;99.90
42617;DHT22;28250;52.320;0.360;2023-08-12T14:00:26;24.60;99.90
42617;DHT22;28250;52.320;0.360;2023-08-12T14:02:52;24.40;99.90
42617;DHT22;28250;52.320;0.360;2023-08-12T14:05:18;24.20;99.90
42617;DHT22;28250;52.320;0.360;2023-08-12T14:07:45;24.60;99.90
42617;DHT22;28250;52.320;0.360;2023-08-12T14:10:11;24.50;99.90
42617;DHT22;28250;52.320;0.360;2023-08-12T14:12:37;24.30;99.90
42617;DHT22;28250;52.320;0.360;2023-08-12T14:15:04;23.90;99.90
42617;DHT22;28250;52.320;0.360;2023-08-12T14:17:31;23.80;99.90
42617;DHT22;28250;52.320;0.360;2023-08-12T14:19:57;24.20;99.90
42617;DHT22;28250;52.320;0.360;2023-08-12T14:22:25;25.10;99.90
42617;DHT22;28250;52.320;0.360;2023-08-12T14:24:51;25.20;99.90
42617;DHT22;28250;52.320;0.360;2023-08-12T14:27:17;25.30;99.90
42617;DHT22;28250;52.320;0.360;2023-08-12T14:29:44;25.00;99.90
42617;DHT22;28250;52.320;0.360;2023-08-12T14:32:10;25.30;99.90
42617;DHT22;28250;52.320;0.360;2023-08-12T14:34:36;24.70;99.90
42617;DHT22;28250;52.320;0.360;2023-08-12T14:37:02;24.30;99.90
42617;DHT22;28250;52.320;0.360;2023-08-12T14:39:29;25.20;99.90
42617;DHT22;28250;52.320;0.360;2023-08-12T14:41:55;26.00;99.90
42617;DHT22;28250;52.320;0.360;2023-08-12T14:44:21;25.80;99.90
42617;DHT22;28250;52.320;0.360;2023-08-12T14:46:47;24.80;99.90
42617;DHT22;28250;52.320;0.360;2023-08-12T14:49:13;24.30;99.90
42617;DHT22;28250;52.320;0.360;2023-08-12T14:51:39;24.10;99.90
42617;DHT22;28250;52.320;0.360;2023-08-12T14:54:05;24.50;99.90
42617;DHT22;28250;52.320;0.360;2023-08-12T14:56:31;24.70;99.90
42617;DHT22;28250;52.320;0.360;2023-08-12T14:58:57;24.50;99.90
42617;DHT22;28250;52.320;0.360;2023-08-12T15:01:23;24.20;99.90
42617;DHT22;28250;52.320;0.360;2023-08-12T15:03:54;24.20;99.90
42617;DHT22;28250;52.320;0.360;2023-08-12T15:06:21;24.10;99.90
42617;DHT22;28250;52.320;0.360;2023-08-12T15:08:47;24.00;99.90
42617;DHT22;28250;52.320;0.360;2023-08-12T15:11:14;23.80;99.90
42617;DHT22;28250;52.320;0.360;2023-08-12T15:13:40;24.00;99.90
42617;DHT22;28250;52.320;0.360;2023-08-12T15:16:06;23.80;99.90
42617;DHT22;28250;52.320;0.360;2023-08-12T15:18:32;23.90;99.90
42617;DHT22;28250;52.320;0.360;2023-08-12T15:20:58;23.80;99.90
42617;DHT22;28250;52.320;0.360;2023-08-12T15:23:24;23.60;99.90
42617;DHT22;28250;52.320;0.360;2023-08-12T15:25:50;23.50;99.90
42617;DHT22;28250;52.320;0.360;2023-08-12T15:28:16;23.20;99.90
42617;DHT22;28250;52.320;0.360;2023-08-12T15:30:42;22.90;99.90